Time;durP1;ratioP1;P1;durP2;ratioP2;P2;SDS_P1;SDS_P2;PMS_P1;PMS_P2;Temp;Humidity;BMP_temperature;BMP_pressure;BME280_temperature;BME280_humidity;BME280_pressure;Samples;Min_cycle;Max_cycle;Signal;HPM_P1;HPM_P2
2024/01/29 00:00:15;;;;;;;4.65;3.50;;;;;;;2.85;68.04;94942.63;524133;28;761;-63
2024/01/29 00:00:31;;;;;;;5.10;3.78;;;;;;;2.86;67.49;94946.09;524094;28;890;-64
2024/01/29 00:00:46;;;;;;;6.40;4.03;;;;;;;2.87;67.98;94945.63;524135;28;793;-63
2024/01/29 00:01:02;;;;;;;6.77;3.80;;;;;;;2.88;68.44;94941.69;524097;28;1917;-64
2024/01/29 00:01:17;;;;;;;5.15;3.33;;;;;;;2.89;68.04;94940.47;524172;28;851;-63
2024/01/29 00:01:33;;;;;;;3.47;3.13;;;;;;;2.69;67.71;94907.53;524111;28;1229;-63
2024/01/29 00:01:48;;;;;;;4.00;3.67;;;;;;;2.92;68.00;94942.25;524105;28;864;-63
2024/01/29 00:02:05;;;;;;;4.03;3.63;;;;;;;2.93;68.34;94943.78;524081;28;788;-63
2024/01/29 00:02:20;;;;;;;4.60;3.42;;;;;;;2.93;67.83;94938.31;524177;28;804;-63
2024/01/29 00:02:37;;;;;;;5.43;3.50;;;;;;;2.94;67.46;94941.81;524121;28;793;-64
2024/01/29 00:02:52;;;;;;;4.50;3.50;;;;;;;2.95;67.52;94943.31;524132;28;819;-63
2024/01/29 00:03:09;;;;;;;4.20;3.80;;;;;;;2.96;67.66;94939.38;524101;28;823;-63
2024/01/29 00:03:24;;;;;;;4.25;3.80;;;;;;;2.97;67.52;94938.91;524099;28;910;-63
2024/01/29 00:03:40;;;;;;;4.80;3.67;;;;;;;2.98;67.91;94943.16;524153;28;785;-63
2024/01/29 00:03:55;;;;;;;5.00;3.47;;;;;;;3.00;67.99;94940.72;525342;28;1156;-63
2024/01/29 00:04:11;;;;;;;4.63;3.57;;;;;;;3.03;67.80;94944.50;526214;28;807;-63
2024/01/29 00:04:26;;;;;;;5.03;3.67;;;;;;;3.03;67.72;94944.50;526213;28;871;-63
2024/01/29 00:04:41;;;;;;;4.45;3.65;;;;;;;3.02;67.48;94940.25;525500;28;1245;-63
2024/01/29 00:04:57;;;;;;;4.00;3.60;;;;;;;3.02;67.41;94940.25;524108;28;768;-63
2024/01/29 00:05:12;;;;;;;3.90;3.50;;;;;;;3.01;67.60;94944.22;524081;28;1016;-63
2024/01/29 00:05:28;;;;;;;4.10;3.60;;;;;;;3.00;67.88;94939.97;524112;28;848;-63
2024/01/29 00:05:44;;;;;;;4.82;3.83;;;;;;;2.99;67.72;94952.84;524039;28;1113;-63
2024/01/29 00:05:59;;;;;;;5.55;4.10;;;;;;;2.99;67.71;94941.91;524064;28;840;-63
2024/01/29 00:06:15;;;;;;;4.83;3.93;;;;;;;2.95;67.12;94944.06;524106;28;926;-63
2024/01/29 00:06:30;;;;;;;4.15;3.75;;;;;;;2.91;67.81;94942.72;524145;28;851;-63
2024/01/29 00:06:45;;;;;;;4.47;3.97;;;;;;;2.90;67.87;94943.97;524049;28;962;-63
2024/01/29 00:07:01;;;;;;;5.03;4.20;;;;;;;2.91;67.76;94938.03;524189;28;810;-63
2024/01/29 00:07:16;;;;;;;5.18;4.20;;;;;;;2.92;68.31;94945.00;524111;28;931;-63
2024/01/29 00:07:32;;;;;;;5.40;4.20;;;;;;;2.96;68.23;94942.09;524062;28;776;-63
2024/01/29 00:07:47;;;;;;;5.00;4.03;;;;;;;2.95;67.83;94943.31;524099;28;887;-63
2024/01/29 00:08:03;;;;;;;4.67;3.87;;;;;;;2.97;68.31;94944.38;524074;28;756;-63
2024/01/29 00:08:19;;;;;;;5.32;3.85;;;;;;;2.99;67.58;94944.66;524084;28;904;-63
2024/01/29 00:08:34;;;;;;;5.50;3.92;;;;;;;2.99;67.49;94949.34;524173;28;930;-63
2024/01/29 00:08:52;;;;;;;5.77;3.53;;;;;;;2.99;67.77;94955.56;523950;28;1077;-63
2024/01/29 00:09:07;;;;;;;6.22;3.55;;;;;;;2.97;68.26;94941.63;524127;28;864;-63
2024/01/29 00:09:23;;;;;;;4.60;3.67;;;;;;;2.98;68.22;94947.84;524034;28;748;-63
2024/01/29 00:09:39;;;;;;;4.25;3.60;;;;;;;3.00;67.65;94948.91;524029;28;950;-63
2024/01/29 00:09:54;;;;;;;5.28;3.80;;;;;;;3.01;67.71;94946.94;524115;28;860;-63
2024/01/29 00:10:10;;;;;;;5.53;3.90;;;;;;;3.03;67.86;94953.41;524053;28;749;-63
2024/01/29 00:10:25;;;;;;;5.03;4.00;;;;;;;3.05;67.75;94952.97;524081;28;832;-63
2024/01/29 00:10:41;;;;;;;4.70;4.20;;;;;;;3.04;67.90;94946.75;524114;28;803;-63
2024/01/29 00:10:56;;;;;;;4.57;4.03;;;;;;;3.04;67.97;94944.03;523998;28;863;-63
2024/01/29 00:11:12;;;;;;;4.63;3.97;;;;;;;3.04;67.62;94949.47;524191;28;760;-63
2024/01/29 00:11:27;;;;;;;4.25;3.85;;;;;;;3.02;67.28;94945.69;524056;28;772;-63
2024/01/29 00:11:43;;;;;;;4.13;3.73;;;;;;;2.99;67.71;94944.66;524032;28;843;-63
2024/01/29 00:11:58;;;;;;;4.85;3.83;;;;;;;3.01;68.08;94946.94;524085;28;855;-63
2024/01/29 00:12:14;;;;;;;5.07;3.90;;;;;;;3.01;67.98;94944.94;524150;28;752;-63
2024/01/29 00:12:29;;;;;;;4.28;3.88;;;;;;;3.00;67.43;94950.88;524089;28;872;-63
2024/01/29 00:12:44;;;;;;;4.43;3.57;;;;;;;2.99;68.27;94950.09;524057;28;839;-63
2024/01/29 00:13:00;;;;;;;5.03;3.37;;;;;;;2.99;68.29;94950.09;524039;28;784;-63
2024/01/29 00:13:15;;;;;;;5.13;3.97;;;;;;;2.98;67.58;94951.34;524087;28;867;-63
2024/01/29 00:13:31;;;;;;;4.70;4.20;;;;;;;2.98;67.64;94953.31;524188;28;818;-63
2024/01/29 00:13:47;;;;;;;5.43;4.22;;;;;;;2.97;67.45;94958.00;523994;28;828;-63
2024/01/29 00:14:02;;;;;;;5.65;4.05;;;;;;;2.93;67.98;94954.69;524130;28;867;-63
2024/01/29 00:14:18;;;;;;;5.20;3.70;;;;;;;2.92;67.88;94955.91;524026;28;800;-63
2024/01/29 00:14:33;;;;;;;5.53;3.78;;;;;;;2.92;68.04;94947.72;524088;28;808;-64
2024/01/29 00:14:49;;;;;;;4.67;3.70;;;;;;;2.94;67.35;94952.72;524133;28;844;-63
2024/01/29 00:15:05;;;;;;;4.43;3.55;;;;;;;2.95;67.72;94954.97;524174;28;828;-63
2024/01/29 00:15:20;;;;;;;4.88;3.80;;;;;;;2.98;67.77;94956.03;524130;28;792;-63
2024/01/29 00:15:36;;;;;;;4.47;3.70;;;;;;;2.98;67.80;94953.31;524114;28;859;-63
2024/01/29 00:15:51;;;;;;;4.90;3.78;;;;;;;3.00;67.66;94953.59;524023;28;816;-63
2024/01/29 00:16:07;;;;;;;6.17;4.30;;;;;;;3.00;67.88;94948.91;524148;28;843;-63
2024/01/29 00:16:22;;;;;;;6.13;4.40;;;;;;;3.02;67.70;94962.84;524010;28;852;-63
2024/01/29 00:16:38;;;;;;;4.37;3.90;;;;;;;3.02;67.70;94957.38;523969;28;749;-63
2024/01/29 00:16:53;;;;;;;4.53;3.72;;;;;;;3.03;67.44;94956.16;523916;28;784;-63
2024/01/29 00:17:09;;;;;;;5.10;4.00;;;;;;;3.01;67.62;94953.13;523877;28;879;-63
2024/01/29 00:17:24;;;;;;;5.60;3.95;;;;;;;2.99;67.10;94952.06;524009;28;816;-63
2024/01/29 00:17:40;;;;;;;5.60;4.00;;;;;;;2.91;67.88;94954.41;523977;28;796;-63
2024/01/29 00:17:55;;;;;;;4.67;4.00;;;;;;;2.89;67.98;94951.38;523856;28;863;-63
2024/01/29 00:18:11;;;;;;;4.60;3.70;;;;;;;2.89;68.03;94948.66;524085;28;834;-63
2024/01/29 00:18:26;;;;;;;4.97;3.92;;;;;;;2.89;68.19;94956.06;524050;28;816;-63
2024/01/29 00:18:42;;;;;;;5.67;4.00;;;;;;;2.87;68.12;94948.38;524084;28;903;-64
2024/01/29 00:18:57;;;;;;;6.55;3.80;;;;;;;2.87;68.20;94947.59;524038;28;864;-63
2024/01/29 00:19:13;;;;;;;5.93;3.70;;;;;;;2.80;68.36;94956.88;524136;28;772;-64
2024/01/29 00:19:28;;;;;;;5.00;3.80;;;;;;;2.79;68.38;94958.09;524008;28;912;-63
2024/01/29 00:19:44;;;;;;;6.82;4.10;;;;;;;2.71;68.46;94951.47;524095;28;808;-63
2024/01/29 00:19:59;;;;;;;6.47;4.00;;;;;;;2.72;68.44;94957.69;523986;28;868;-63
2024/01/29 00:20:15;;;;;;;4.87;4.10;;;;;;;2.73;68.49;94957.22;524079;28;867;-63
2024/01/29 00:20:31;;;;;;;4.68;4.20;;;;;;;2.73;68.40;94959.19;524214;28;831;-63
2024/01/29 00:20:46;;;;;;;4.53;4.13;;;;;;;2.71;68.88;94956.16;524014;28;839;-64
2024/01/29 00:21:02;;;;;;;5.00;4.37;;;;;;;2.70;68.77;94955.41;524150;28;836;-63
2024/01/29 00:21:18;;;;;;;4.55;4.07;;;;;;;2.71;68.64;94951.47;523927;28;1930;-63
2024/01/29 00:21:33;;;;;;;5.18;3.97;;;;;;;2.72;68.63;94949.50;524155;28;760;-63
2024/01/29 00:21:48;;;;;;;6.40;4.00;;;;;;;2.72;69.12;94947.53;524062;28;851;-63
2024/01/29 00:22:04;;;;;;;5.68;4.20;;;;;;;2.73;68.66;94959.94;524127;28;918;-63
2024/01/29 00:22:19;;;;;;;5.93;4.37;;;;;;;2.75;68.88;94960.22;524085;28;772;-63
2024/01/29 00:22:35;;;;;;;5.10;3.97;;;;;;;2.78;68.64;94953.09;524061;28;734;-63
2024/01/29 00:22:50;;;;;;;5.00;4.17;;;;;;;2.78;68.41;94953.88;524025;28;871;-63
2024/01/29 00:23:07;;;;;;;5.20;4.40;;;;;;;2.78;68.71;94956.59;524052;28;880;-63
2024/01/29 00:23:22;;;;;;;5.28;4.40;;;;;;;2.82;68.65;94956.41;524152;28;906;-63
2024/01/29 00:23:37;;;;;;;5.80;4.53;;;;;;;2.81;68.94;94961.13;524094;28;804;-63
2024/01/29 00:23:54;;;;;;;5.00;4.40;;;;;;;2.80;68.56;94965.06;524094;28;828;-62
2024/01/29 00:24:09;;;;;;;4.63;4.13;;;;;;;2.78;68.82;94955.81;523971;28;832;-63
2024/01/29 00:24:24;;;;;;;4.60;4.07;;;;;;;2.76;68.71;94958.25;524003;28;761;-63
2024/01/29 00:24:40;;;;;;;6.05;4.43;;;;;;;2.72;69.06;94955.72;524104;28;920;-63
2024/01/29 00:24:56;;;;;;;6.53;4.47;;;;;;;2.73;68.99;94959.94;524033;28;780;-63
2024/01/29 00:25:11;;;;;;;6.35;4.40;;;;;;;2.72;69.56;94958.44;524189;28;831;-63
2024/01/29 00:25:26;;;;;;;6.20;4.33;;;;;;;2.73;68.78;94957.22;524019;28;836;-63
2024/01/29 00:25:42;;;;;;;4.88;4.10;;;;;;;2.74;69.56;94956.00;524085;28;792;-63
2024/01/29 00:25:58;;;;;;;5.03;4.43;;;;;;;2.74;68.91;94956.00;524077;28;756;-63
2024/01/29 00:26:13;;;;;;;6.32;4.78;;;;;;;2.75;68.83;94960.22;524081;28;829;-63
2024/01/29 00:26:29;;;;;;;6.88;4.57;;;;;;;2.70;68.81;94960.13;523910;28;832;-64
2024/01/29 00:26:44;;;;;;;6.13;4.27;;;;;;;2.65;69.14;94956.03;523868;28;788;-63
2024/01/29 00:27:00;;;;;;;5.27;4.10;;;;;;;2.67;69.12;94956.34;523856;28;831;-64
2024/01/29 00:27:15;;;;;;;4.22;3.75;;;;;;;2.68;68.71;94966.03;523932;28;784;-64
2024/01/29 00:27:30;;;;;;;4.43;3.80;;;;;;;2.68;68.86;94957.84;523936;28;796;-63
2024/01/29 00:27:46;;;;;;;5.22;3.97;;;;;;;2.71;68.43;94956.91;523916;28;781;-63
2024/01/29 00:28:01;;;;;;;5.90;4.03;;;;;;;2.71;69.13;94961.59;523981;28;765;-63
2024/01/29 00:28:17;;;;;;;5.35;4.05;;;;;;;2.59;69.29;94941.53;523901;28;844;-63
2024/01/29 00:28:32;;;;;;;5.33;4.30;;;;;;;2.73;69.26;94957.22;523896;28;788;-64
2024/01/29 00:28:48;;;;;;;6.15;4.53;;;;;;;2.74;68.55;94964.19;523899;28;831;-63
2024/01/29 00:29:03;;;;;;;5.13;4.17;;;;;;;2.72;69.43;94961.16;523914;28;854;-63
2024/01/29 00:29:19;;;;;;;5.33;4.47;;;;;;;2.70;69.11;94955.41;523901;28;808;-63
2024/01/29 00:29:34;;;;;;;5.53;4.60;;;;;;;2.73;68.63;94959.19;523764;28;881;-63
2024/01/29 00:29:49;;;;;;;5.03;4.40;;;;;;;2.74;68.98;94958.72;523819;28;956;-63
2024/01/29 00:30:06;;;;;;;6.13;4.78;;;;;;;2.72;68.85;94952.22;523940;28;800;-63
2024/01/29 00:30:21;;;;;;;6.15;4.70;;;;;;;2.72;69.09;94957.69;523944;28;816;-63
2024/01/29 00:30:37;;;;;;;5.45;4.70;;;;;;;2.74;69.13;94957.97;523884;28;871;-64
2024/01/29 00:30:52;;;;;;;5.57;4.73;;;;;;;2.76;69.18;94958.25;523984;28;847;-63
2024/01/29 00:31:08;;;;;;;6.30;4.70;;;;;;;2.78;68.88;94959.31;523842;28;871;-63
2024/01/29 00:31:23;;;;;;;6.63;4.73;;;;;;;2.81;69.24;94961.13;523939;28;899;-63
2024/01/29 00:31:39;;;;;;;5.38;4.35;;;;;;;2.84;68.22;94962.91;523900;28;895;-64
2024/01/29 00:31:54;;;;;;;4.67;4.20;;;;;;;2.85;68.81;94956.25;523849;28;880;-63
2024/01/29 00:32:09;;;;;;;4.93;4.43;;;;;;;2.88;68.61;94960.03;523895;28;887;-63
2024/01/29 00:32:25;;;;;;;5.43;4.57;;;;;;;2.90;68.66;94957.59;523788;28;899;-63
2024/01/29 00:32:41;;;;;;;6.00;4.78;;;;;;;2.91;68.19;94962.59;523967;28;823;-63
2024/01/29 00:32:56;;;;;;;5.27;4.60;;;;;;;2.90;68.36;94958.34;523843;28;836;-64
2024/01/29 00:33:12;;;;;;;6.60;4.72;;;;;;;2.94;68.55;94958.19;523955;28;808;-63
2024/01/29 00:33:27;;;;;;;7.73;4.97;;;;;;;2.94;68.59;94961.69;523911;28;937;-63
2024/01/29 00:33:43;;;;;;;7.35;5.00;;;;;;;2.96;68.59;94961.97;523861;28;792;-63
2024/01/29 00:33:58;;;;;;;6.60;4.93;;;;;;;2.98;68.93;94958.75;523766;28;760;-63
2024/01/29 00:34:14;;;;;;;5.43;4.63;;;;;;;2.99;68.71;94963.00;523952;28;772;-64
2024/01/29 00:34:29;;;;;;;5.43;4.50;;;;;;;3.00;68.22;94961.78;523811;28;773;-63
2024/01/29 00:34:46;;;;;;;6.40;4.65;;;;;;;3.03;68.13;94960.88;523912;28;868;-63
2024/01/29 00:35:02;;;;;;;6.50;4.75;;;;;;;3.04;68.81;94956.91;523979;28;852;-63
2024/01/29 00:35:18;;;;;;;5.63;4.78;;;;;;;3.06;67.99;94962.66;523791;28;926;-63
2024/01/29 00:35:33;;;;;;;5.43;4.70;;;;;;;3.06;68.33;94957.97;523977;28;785;-64
2024/01/29 00:35:49;;;;;;;5.93;4.60;;;;;;;3.08;67.94;94960.22;523921;28;879;-63
2024/01/29 00:36:04;;;;;;;6.43;4.93;;;;;;;3.10;68.39;94963.22;523863;28;828;-63
2024/01/29 00:36:20;;;;;;;6.10;5.30;;;;;;;3.12;67.59;94954.59;523804;28;922;-63
2024/01/29 00:36:35;;;;;;;5.93;5.07;;;;;;;3.14;67.90;94957.63;523845;28;836;-64
2024/01/29 00:36:51;;;;;;;6.15;4.90;;;;;;;3.15;68.26;94964.56;523890;28;817;-63
2024/01/29 00:37:06;;;;;;;6.37;4.70;;;;;;;3.16;67.78;94963.38;523885;28;836;-64
2024/01/29 00:37:26;;;;;;;5.88;4.47;;;;;;;3.16;68.05;94958.66;523914;28;796;-64
2024/01/29 00:37:41;;;;;;;5.68;4.55;;;;;;;3.18;67.56;94961.69;523888;28;927;-64
2024/01/29 00:37:57;;;;;;;6.35;4.65;;;;;;;3.19;67.34;94960.44;523799;28;997;-63
2024/01/29 00:38:12;;;;;;;6.10;4.60;;;;;;;3.20;67.56;94961.22;523932;28;803;-63
2024/01/29 00:38:27;;;;;;;5.90;4.43;;;;;;;3.22;67.71;94965.00;523846;28;787;-63
2024/01/29 00:38:43;;;;;;;5.40;4.28;;;;;;;3.24;67.80;94959.06;523851;28;800;-63
2024/01/29 00:38:58;;;;;;;5.40;4.43;;;;;;;3.26;67.87;94965.56;523790;28;915;-64
2024/01/29 00:39:14;;;;;;;5.27;4.30;;;;;;;3.27;67.17;94963.59;523938;28;840;-63
2024/01/29 00:39:30;;;;;;;6.27;4.33;;;;;;;3.28;66.96;94970.56;523814;28;899;-63
2024/01/29 00:39:45;;;;;;;5.90;4.32;;;;;;;3.29;67.55;94969.34;523932;28;792;-64
2024/01/29 00:40:00;;;;;;;4.53;4.13;;;;;;;3.23;67.24;94961.03;523973;28;875;-63
2024/01/29 00:40:16;;;;;;;4.93;4.40;;;;;;;3.28;67.30;94965.09;523887;28;813;-63
2024/01/29 00:40:33;;;;;;;5.20;4.50;;;;;;;3.23;67.69;94961.03;523980;28;820;-63
2024/01/29 00:40:48;;;;;;;4.47;4.05;;;;;;;3.22;67.45;94962.28;523781;28;875;-63
2024/01/29 00:41:04;;;;;;;4.43;4.03;;;;;;;3.21;67.92;94966.19;523866;28;1963;-63
2024/01/29 00:41:19;;;;;;;4.70;4.10;;;;;;;3.19;67.71;94968.63;523920;28;852;-63
2024/01/29 00:41:36;;;;;;;5.20;3.95;;;;;;;3.19;67.79;94962.41;524036;28;788;-63
2024/01/29 00:41:51;;;;;;;4.85;3.78;;;;;;;3.18;68.13;94966.38;524039;28;821;-63
2024/01/29 00:42:06;;;;;;;4.63;3.90;;;;;;;3.18;67.41;94963.66;524010;28;793;-63
2024/01/29 00:42:22;;;;;;;4.63;3.83;;;;;;;3.19;67.84;94960.44;524081;28;820;-63
2024/01/29 00:42:37;;;;;;;4.63;3.83;;;;;;;3.20;67.42;94958.50;524060;28;792;-64
2024/01/29 00:42:53;;;;;;;4.53;3.85;;;;;;;3.16;67.68;94952.44;524059;28;903;-64
2024/01/29 00:43:08;;;;;;;4.83;3.93;;;;;;;3.12;67.75;94958.06;524032;28;777;-62
2024/01/29 00:43:24;;;;;;;5.63;4.10;;;;;;;3.09;67.73;94964.47;524090;28;772;-64
2024/01/29 00:43:39;;;;;;;6.10;4.47;;;;;;;3.10;67.96;94965.22;523966;28;836;-64
2024/01/29 00:43:55;;;;;;;5.85;4.95;;;;;;;3.08;67.70;94958.25;524062;28;1087;-63
2024/01/29 00:44:10;;;;;;;5.00;4.50;;;;;;;3.06;67.88;94957.97;524055;28;776;-63
2024/01/29 00:44:25;;;;;;;4.70;4.30;;;;;;;3.11;68.10;94964.75;524084;28;777;-63
2024/01/29 00:44:42;;;;;;;5.80;4.77;;;;;;;2.88;68.16;94930.78;523937;28;855;-64
2024/01/29 00:44:58;;;;;;;6.93;5.00;;;;;;;3.12;68.03;94957.34;523890;28;869;-63
2024/01/29 00:45:13;;;;;;;6.40;5.00;;;;;;;3.13;67.94;94967.78;524085;28;772;-63
2024/01/29 00:45:29;;;;;;;6.68;5.22;;;;;;;3.15;68.29;94961.84;524016;28;840;-63
2024/01/29 00:45:45;;;;;;;7.55;5.35;;;;;;;3.16;68.05;94966.84;524072;28;825;-63
2024/01/29 00:46:00;;;;;;;8.60;5.50;;;;;;;3.16;67.86;94969.59;524033;28;879;-63
2024/01/29 00:46:16;;;;;;;9.13;5.80;;;;;;;3.14;68.18;94963.81;523934;28;1051;-63
2024/01/29 00:46:31;;;;;;;8.47;6.30;;;;;;;3.11;68.05;94958.53;524116;28;843;-64
2024/01/29 00:46:47;;;;;;;10.05;6.85;;;;;;;3.12;68.17;94962.78;524047;28;780;-64
2024/01/29 00:47:02;;;;;;;11.13;6.80;;;;;;;3.11;68.44;94967.47;524091;28;839;-64
2024/01/29 00:47:20;;;;;;;9.10;6.35;;;;;;;3.11;68.28;94966.72;524033;28;773;-63
2024/01/29 00:47:35;;;;;;;8.23;6.18;;;;;;;3.11;67.66;94964.75;523993;28;835;-63
2024/01/29 00:47:51;;;;;;;10.63;6.68;;;;;;;3.12;67.73;94962.78;524047;28;855;-63
2024/01/29 00:48:06;;;;;;;12.63;7.43;;;;;;;3.13;67.99;94962.31;523989;28;895;-63
2024/01/29 00:48:23;;;;;;;10.73;6.93;;;;;;;3.15;68.19;94959.13;524155;28;847;-63
2024/01/29 00:48:38;;;;;;;10.43;7.15;;;;;;;3.15;67.98;94970.78;524107;28;836;-63
2024/01/29 00:48:54;;;;;;;11.80;7.63;;;;;;;3.17;68.04;94964.88;524064;28;855;-63
2024/01/29 00:49:09;;;;;;;11.53;7.63;;;;;;;3.17;67.46;94968.34;523945;28;907;-64
2024/01/29 00:49:24;;;;;;;11.82;8.35;;;;;;;3.15;67.88;94959.88;524095;28;815;-63
2024/01/29 00:49:40;;;;;;;12.33;8.60;;;;;;;3.19;67.43;94960.44;523955;28;785;-64
2024/01/29 00:49:55;;;;;;;10.60;7.50;;;;;;;3.21;67.71;94965.44;523994;28;915;-63
2024/01/29 00:50:11;;;;;;;10.77;6.70;;;;;;;3.19;67.20;94965.16;524114;28;821;-63
2024/01/29 00:50:26;;;;;;;11.83;6.63;;;;;;;3.18;67.27;94963.66;524007;28;788;-63
2024/01/29 00:50:42;;;;;;;10.05;6.38;;;;;;;3.19;68.28;94962.41;524026;28;805;-64
2024/01/29 00:50:57;;;;;;;8.07;6.07;;;;;;;3.19;67.68;94959.69;524061;28;773;-63
2024/01/29 00:51:12;;;;;;;9.38;5.88;;;;;;;3.17;67.75;94962.13;524111;28;824;-63
2024/01/29 00:51:28;;;;;;;9.43;5.37;;;;;;;3.15;67.41;94970.78;524081;28;871;-63
2024/01/29 00:51:43;;;;;;;6.65;4.82;;;;;;;3.14;67.53;94965.81;524036;28;824;-63
2024/01/29 00:51:59;;;;;;;6.83;4.93;;;;;;;3.13;68.20;94965.03;523925;28;922;-63
2024/01/29 00:52:14;;;;;;;8.03;5.10;;;;;;;3.14;68.07;94963.06;524097;28;821;-63
2024/01/29 00:52:30;;;;;;;8.50;5.72;;;;;;;3.14;67.99;94969.28;524079;28;820;-63
2024/01/29 00:52:46;;;;;;;7.65;5.70;;;;;;;3.14;67.21;94966.53;523998;28;908;-63
2024/01/29 00:53:02;;;;;;;7.28;5.60;;;;;;;3.16;67.52;94968.81;524051;28;1128;-63
2024/01/29 00:53:17;;;;;;;7.13;5.57;;;;;;;3.16;67.97;94958.66;523974;28;827;-64
2024/01/29 00:53:33;;;;;;;8.80;5.28;;;;;;;3.16;67.97;94969.59;524127;28;789;-63
2024/01/29 00:53:48;;;;;;;8.20;5.13;;;;;;;3.19;67.59;94967.88;523969;28;772;-63
2024/01/29 00:54:04;;;;;;;6.68;4.80;;;;;;;3.18;67.76;94961.69;524035;28;887;-63
2024/01/29 00:54:20;;;;;;;6.47;4.77;;;;;;;3.19;68.09;94967.88;523952;28;776;-63
2024/01/29 00:54:36;;;;;;;6.22;4.53;;;;;;;3.18;67.81;94966.38;523990;28;809;-63
2024/01/29 00:54:51;;;;;;;7.00;4.73;;;;;;;3.15;67.92;94959.88;523940;28;788;-63
2024/01/29 00:55:07;;;;;;;6.38;4.78;;;;;;;3.08;67.90;94963.69;524038;28;852;-63
2024/01/29 00:55:22;;;;;;;5.82;4.57;;;;;;;3.03;68.14;94972.50;524137;28;796;-63
2024/01/29 00:55:38;;;;;;;6.73;4.70;;;;;;;2.99;67.90;94965.72;524057;28;851;-63
2024/01/29 00:55:54;;;;;;;8.90;4.75;;;;;;;2.98;68.11;94964.22;523983;28;828;-63
2024/01/29 00:56:09;;;;;;;8.90;4.50;;;;;;;2.98;68.68;94964.97;524016;28;899;-64
2024/01/29 00:56:25;;;;;;;7.15;4.53;;;;;;;2.99;68.10;94969.22;524013;28;856;-63
2024/01/29 00:56:40;;;;;;;6.50;4.60;;;;;;;3.00;67.81;94973.47;524056;28;1064;-63
2024/01/29 00:56:56;;;;;;;5.68;4.50;;;;;;;3.00;68.02;94964.50;524002;28;864;-63
2024/01/29 00:57:15;;;;;;;5.83;4.57;;;;;;;3.04;68.14;94965.84;524121;28;870;-64
2024/01/29 00:57:31;;;;;;;5.10;4.60;;;;;;;3.05;67.86;94966.63;524041;28;832;-63
2024/01/29 00:57:46;;;;;;;5.00;4.50;;;;;;;3.06;68.64;94963.41;524041;28;860;-63
2024/01/29 00:58:02;;;;;;;5.40;4.80;;;;;;;3.08;68.32;94963.69;524100;28;784;-63
2024/01/29 00:58:17;;;;;;;5.53;4.80;;;;;;;3.09;67.83;94961.75;524074;28;760;-63
2024/01/29 00:58:32;;;;;;;5.80;4.80;;;;;;;3.11;68.18;94961.25;524040;28;792;-63
2024/01/29 00:58:48;;;;;;;6.73;4.70;;;;;;;3.11;67.86;94964.00;523976;28;788;-64
2024/01/29 00:59:03;;;;;;;6.07;4.60;;;;;;;3.13;67.92;94964.28;523982;28;856;-63
2024/01/29 00:59:19;;;;;;;5.65;4.75;;;;;;;3.13;67.81;94961.56;524076;28;800;-63
2024/01/29 00:59:34;;;;;;;5.30;4.72;;;;;;;3.14;67.98;94963.06;524073;28;760;-63
2024/01/29 00:59:50;;;;;;;5.53;4.67;;;;;;;3.15;67.89;94967.31;523885;28;918;-63
2024/01/29 01:00:10;;;;;;;5.93;4.47;;;;;;;3.11;67.58;94964.75;523817;28;816;-63
2024/01/29 01:00:26;;;;;;;4.82;4.35;;;;;;;3.12;68.17;94960.06;523784;28;828;-63
2024/01/29 01:00:44;;;;;;;5.40;4.57;;;;;;;3.13;68.09;94969.75;523893;28;910;-64
2024/01/29 01:01:00;;;;;;;6.22;4.80;;;;;;;3.13;68.31;94962.31;523783;28;937;-63
2024/01/29 01:01:15;;;;;;;5.37;4.40;;;;;;;3.12;68.43;94962.78;523782;28;1926;-63
2024/01/29 01:01:30;;;;;;;5.03;4.18;;;;;;;3.10;68.22;94965.22;523882;28;793;-63
2024/01/29 01:01:46;;;;;;;5.77;4.30;;;;;;;3.09;68.46;94964.47;523813;28;804;-63
2024/01/29 01:02:01;;;;;;;5.75;4.40;;;;;;;3.06;68.41;94962.66;524001;28;843;-63
2024/01/29 01:02:17;;;;;;;5.67;4.33;;;;;;;3.00;68.46;94968.00;523989;28;832;-63
2024/01/29 01:02:33;;;;;;;5.23;4.30;;;;;;;2.99;68.36;94961.03;524036;28;1098;-63
2024/01/29 01:02:48;;;;;;;5.17;4.60;;;;;;;2.93;68.79;94962.88;523965;28;884;-64
2024/01/29 01:03:05;;;;;;;5.65;4.70;;;;;;;2.83;68.80;94964.16;524008;28;893;-63
2024/01/29 01:03:20;;;;;;;6.57;4.80;;;;;;;2.77;69.12;94968.69;524029;28;795;-63
2024/01/29 01:03:36;;;;;;;6.28;4.70;;;;;;;2.78;69.17;94961.28;524081;28;776;-63
2024/01/29 01:03:51;;;;;;;5.37;4.20;;;;;;;2.77;69.12;94957.06;523880;28;1171;-63
2024/01/29 01:04:07;;;;;;;5.35;4.28;;;;;;;2.75;69.19;94965.69;524033;28;819;-63
2024/01/29 01:04:23;;;;;;;6.05;4.53;;;;;;;2.61;68.74;94941.81;523988;28;867;-63
2024/01/29 01:04:38;;;;;;;5.83;4.50;;;;;;;2.75;69.20;94967.69;524046;28;1250;-63
2024/01/29 01:04:54;;;;;;;5.50;4.70;;;;;;;2.77;69.38;94960.53;526096;28;755;-63
2024/01/29 01:05:09;;;;;;;5.63;4.70;;;;;;;2.78;68.94;94966.72;525993;28;1119;-64
2024/01/29 01:05:25;;;;;;;5.80;4.40;;;;;;;2.78;69.23;94955.81;526119;28;810;-63
2024/01/29 01:05:40;;;;;;;5.43;4.30;;;;;;;2.79;68.92;94960.06;525961;28;1342;-64
2024/01/29 01:05:56;;;;;;;4.70;4.07;;;;;;;2.60;68.95;94934.09;526087;28;803;-63
2024/01/29 01:06:11;;;;;;;5.27;4.20;;;;;;;2.79;69.22;94958.09;526175;28;854;-63
2024/01/29 01:06:26;;;;;;;6.00;4.75;;;;;;;2.81;68.63;94960.38;526128;28;902;-63
2024/01/29 01:06:42;;;;;;;7.33;4.97;;;;;;;2.81;69.08;94957.66;526075;28;787;-63
2024/01/29 01:06:57;;;;;;;6.25;4.53;;;;;;;2.80;69.41;94956.13;526053;28;835;-63
2024/01/29 01:07:13;;;;;;;4.73;4.23;;;;;;;2.70;69.10;94954.66;526099;28;808;-63
2024/01/29 01:07:28;;;;;;;5.45;4.57;;;;;;;2.68;69.53;94960.59;526108;28;918;-63
2024/01/29 01:07:44;;;;;;;5.77;4.63;;;;;;;2.65;69.73;94953.31;526117;28;904;-63
2024/01/29 01:08:00;;;;;;;5.78;4.57;;;;;;;2.68;69.44;94957.09;526089;28;772;-63
2024/01/29 01:08:15;;;;;;;5.50;4.75;;;;;;;2.64;69.96;94957.25;526144;28;803;-63
2024/01/29 01:08:33;;;;;;;5.23;4.63;;;;;;;2.65;70.07;94960.72;526124;28;842;-63
2024/01/29 01:08:48;;;;;;;5.32;4.47;;;;;;;2.62;70.40;94961.66;526059;28;843;-63
2024/01/29 01:09:04;;;;;;;6.17;4.67;;;;;;;2.60;70.20;94958.66;526154;28;843;-63
2024/01/29 01:09:19;;;;;;;5.82;4.82;;;;;;;2.59;69.94;94957.13;526066;28;828;-63
2024/01/29 01:09:35;;;;;;;5.80;4.40;;;;;;;2.61;69.52;94957.41;526148;28;796;-63
2024/01/29 01:09:50;;;;;;;6.72;4.40;;;;;;;2.59;70.35;94959.84;525943;28;835;-63
2024/01/29 01:10:07;;;;;;;7.03;4.80;;;;;;;2.60;70.13;94964.09;526080;28;795;-63
2024/01/29 01:10:22;;;;;;;6.30;4.70;;;;;;;2.59;69.49;94959.84;526163;28;816;-63
2024/01/29 01:10:37;;;;;;;6.07;4.43;;;;;;;2.59;69.72;94960.63;526102;28;867;-63
2024/01/29 01:10:53;;;;;;;6.37;4.33;;;;;;;2.60;70.23;94966.81;526079;28;760;-63
2024/01/29 01:11:08;;;;;;;6.18;4.53;;;;;;;2.63;69.82;94961.19;526006;28;843;-64
2024/01/29 01:11:24;;;;;;;5.63;4.57;;;;;;;2.64;69.42;94957.25;526124;28;768;-63
2024/01/29 01:11:41;;;;;;;5.03;4.43;;;;;;;2.62;69.53;94958.94;526117;28;756;-63
2024/01/29 01:11:56;;;;;;;5.25;4.45;;;;;;;2.60;69.57;94953.94;526062;28;903;-63
2024/01/29 01:12:12;;;;;;;6.10;4.70;;;;;;;2.63;69.70;94963.16;526134;28;756;-63
2024/01/29 01:12:27;;;;;;;6.35;4.80;;;;;;;2.65;69.61;94961.50;526110;28;760;-63
2024/01/29 01:12:43;;;;;;;5.50;4.40;;;;;;;2.67;69.72;94961.03;526066;28;756;-63
2024/01/29 01:13:00;;;;;;;7.25;4.28;;;;;;;2.64;69.91;94962.69;526079;28;796;-63
2024/01/29 01:13:15;;;;;;;7.70;4.40;;;;;;;2.60;69.96;94966.81;526121;28;898;-63
2024/01/29 01:13:31;;;;;;;4.95;4.25;;;;;;;2.59;69.84;94963.34;526126;28;909;-63
2024/01/29 01:13:46;;;;;;;4.55;3.90;;;;;;;2.58;69.83;94963.81;525989;28;832;-63
2024/01/29 01:14:02;;;;;;;5.93;4.27;;;;;;;2.58;70.16;94959.09;526055;28;802;-63
2024/01/29 01:14:20;;;;;;;6.22;4.53;;;;;;;2.60;70.07;94961.38;526158;28;862;-63
2024/01/29 01:14:35;;;;;;;5.25;4.28;;;;;;;2.58;70.29;94961.81;526101;28;796;-63
2024/01/29 01:14:51;;;;;;;5.60;4.20;;;;;;;2.59;69.71;94960.63;526025;28;799;-63
2024/01/29 01:15:06;;;;;;;5.28;4.13;;;;;;;2.60;69.47;94958.66;526074;28;792;-63
2024/01/29 01:15:22;;;;;;;6.50;4.40;;;;;;;2.51;69.34;94959.44;526028;28;904;-63
2024/01/29 01:15:37;;;;;;;7.55;4.50;;;;;;;2.51;70.37;94959.44;526130;28;883;-63
2024/01/29 01:15:53;;;;;;;4.83;4.03;;;;;;;2.52;69.92;94966.38;525991;28;772;-63
2024/01/29 01:16:08;;;;;;;4.80;4.30;;;;;;;2.48;70.29;94957.63;526060;28;756;-63
2024/01/29 01:16:24;;;;;;;5.00;4.50;;;;;;;2.49;70.31;94967.28;526190;28;815;-63
2024/01/29 01:16:39;;;;;;;4.97;4.25;;;;;;;2.51;69.91;94964.88;526014;28;816;-63
2024/01/29 01:16:55;;;;;;;4.83;4.13;;;;;;;2.53;69.98;94967.16;526040;28;855;-63
2024/01/29 01:17:10;;;;;;;5.68;4.30;;;;;;;2.52;69.88;94966.38;526086;28;834;-64